This is the latest recevied weather packets stored in our database for station/object SP3SWJ-13. If no packets are shown the sender has not sent any weather packets the latest 10 day(s).
| Time | Temp. | Humidity | Pressure | Rain* | Wind** | Luminosity | Snow |
|---|---|---|---|---|---|---|---|
| 1777365198 | 8.89° C | 34% | 1017.4 hPa | - | - | 545 W/m² | - |
| 1777364897 | 8.89° C | 32% | 1017.5 hPa | - | - | 539 W/m² | - |
| 1777364596 | 7.78° C | 34% | 1017.5 hPa | - | - | 529 W/m² | - |
| 1777364295 | 10° C | 31% | 1017.4 hPa | - | - | 520 W/m² | - |
| 1777363994 | 8.89° C | 32% | 1017.4 hPa | - | - | 511 W/m² | - |
| 1777363693 | 8.33° C | 38% | 1017.4 hPa | - | - | 503 W/m² | - |
| 1777363392 | 10° C | 36% | 1017.5 hPa | - | - | 497 W/m² | - |
| 1777363091 | 9.44° C | 37% | 1017.5 hPa | - | - | 487 W/m² | - |
| 1777362790 | 9.44° C | 39% | 1017.5 hPa | - | - | 475 W/m² | - |
| 1777362489 | 8.89° C | 38% | 1017.5 hPa | - | - | 457 W/m² | - |
| 1777362189 | 7.78° C | 40% | 1017.5 hPa | - | - | 434 W/m² | - |
| 1777361887 | 7.22° C | 42% | 1017.5 hPa | - | - | 421 W/m² | - |
| 1777361586 | 7.78° C | 40% | 1017.5 hPa | - | - | 413 W/m² | - |
| 1777361285 | 8.33° C | 41% | 1017.4 hPa | - | - | 376 W/m² | - |
| 1777360984 | 7.78° C | 41% | 1017.4 hPa | - | - | 357 W/m² | - |
| 1777360683 | 7.22° C | 42% | 1017.4 hPa | - | - | 354 W/m² | - |
| 1777360382 | 6.67° C | 44% | 1017.5 hPa | - | - | 355 W/m² | - |
| 1777360081 | 6.67° C | 43% | 1017.4 hPa | - | - | 318 W/m² | - |
| 1777359780 | 7.22° C | 42% | 1017.4 hPa | - | - | 304 W/m² | - |
| 1777359479 | 7.78° C | 42% | 1017.4 hPa | - | - | 307 W/m² | - |
| 1777359178 | 7.78° C | 42% | 1017.4 hPa | - | - | 303 W/m² | - |
| 1777358877 | 7.78° C | 43% | 1017.4 hPa | - | - | 287 W/m² | - |
| 1777358576 | 7.22° C | 43% | 1017.4 hPa | - | - | 267 W/m² | - |
| 1777358275 | 7.22° C | 43% | 1017.3 hPa | - | - | 260 W/m² | - |
| 1777357974 | 6.67° C | 45% | 1017.2 hPa | - | - | 250 W/m² | - |
* Rain since midnight (hover to see other rain measurements)
** Current wind speed in m/s (hover to see current wind gust speed)